sensor_id;sensor_type;location;lat;lon;timestamp;pressure;altitude;pressure_sealevel;temperature;humidity
47761;BME280;33524;55.434;38.520;2023-05-23T12:09:23;100500.56;;;23.80;56.92
47761;BME280;33524;55.434;38.520;2023-05-23T12:11:53;100500.56;;;23.80;56.92
47761;BME280;33524;55.434;38.520;2023-05-23T12:14:21;100499.72;;;24.91;52.57
47761;BME280;33524;55.434;38.520;2023-05-23T12:16:51;100496.06;;;24.57;52.42
47761;BME280;33524;55.434;38.520;2023-05-23T12:19:19;100497.31;;;24.26;52.55
47761;BME280;33524;55.434;38.520;2023-05-23T12:21:48;100494.75;;;24.05;52.93
47761;BME280;33524;55.434;38.520;2023-05-23T12:24:18;100496.06;;;24.22;52.52
47761;BME280;33524;55.434;38.520;2023-05-23T12:27:00;100479.22;;;24.42;51.80
47761;BME280;33524;55.434;38.520;2023-05-23T12:32:02;100485.84;;;25.07;47.86
47761;BME280;33524;55.434;38.520;2023-05-23T12:34:30;100484.78;;;24.33;49.50
47761;BME280;33524;55.434;38.520;2023-05-23T12:37:00;100488.75;;;24.09;50.58
47761;BME280;33524;55.434;38.520;2023-05-23T12:39:46;100489.09;;;24.00;50.60
47761;BME280;33524;55.434;38.520;2023-05-23T12:42:14;100486.56;;;23.63;52.26
47761;BME280;33524;55.434;38.520;2023-05-23T12:44:42;100484.13;;;24.31;52.33
47761;BME280;33524;55.434;38.520;2023-05-23T12:47:11;100477.06;;;23.89;50.88
47761;BME280;33524;55.434;38.520;2023-05-23T12:49:39;100483.63;;;23.80;51.55
47761;BME280;33524;55.434;38.520;2023-05-23T12:52:07;100478.69;;;24.18;51.59
47761;BME280;33524;55.434;38.520;2023-05-23T12:54:36;100474.78;;;24.62;50.90
47761;BME280;33524;55.434;38.520;2023-05-23T12:57:04;100462.81;;;24.23;52.71
47761;BME280;33524;55.434;38.520;2023-05-23T12:59:32;100465.19;;;24.46;51.07
47761;BME280;33524;55.434;38.520;2023-05-23T13:02:00;100465.69;;;23.37;54.08
47761;BME280;33524;55.434;38.520;2023-05-23T13:04:29;100456.28;;;23.48;53.74
47761;BME280;33524;55.434;38.520;2023-05-23T13:06:58;100457.00;;;23.85;53.11
47761;BME280;33524;55.434;38.520;2023-05-23T13:09:27;100468.19;;;23.67;53.03
47761;BME280;33524;55.434;38.520;2023-05-23T13:11:55;100466.56;;;23.94;52.72
47761;BME280;33524;55.434;38.520;2023-05-23T13:14:23;100461.66;;;23.48;54.54
47761;BME280;33524;55.434;38.520;2023-05-23T13:16:52;100449.47;;;23.45;54.34
47761;BME280;33524;55.434;38.520;2023-05-23T13:19:20;100451.63;;;23.35;53.86
47761;BME280;33524;55.434;38.520;2023-05-23T13:21:48;100451.53;;;23.71;53.41
47761;BME280;33524;55.434;38.520;2023-05-23T13:24:16;100453.94;;;23.88;55.38
47761;BME280;33524;55.434;38.520;2023-05-23T13:26:44;100444.00;;;22.37;56.90
47761;BME280;33524;55.434;38.520;2023-05-23T13:29:12;100439.53;;;22.45;58.14
47761;BME280;33524;55.434;38.520;2023-05-23T13:31:41;100436.75;;;22.53;57.00
47761;BME280;33524;55.434;38.520;2023-05-23T13:34:21;100430.50;;;22.46;57.47
47761;BME280;33524;55.434;38.520;2023-05-23T13:36:50;100431.16;;;22.18;57.90
47761;BME280;33524;55.434;38.520;2023-05-23T13:39:18;100429.34;;;22.55;57.43
47761;BME280;33524;55.434;38.520;2023-05-23T13:41:49;100432.63;;;23.08;55.72
47761;BME280;33524;55.434;38.520;2023-05-23T13:44:29;100435.28;;;23.58;54.93
47761;BME280;33524;55.434;38.520;2023-05-23T13:47:09;100433.00;;;23.27;54.55
47761;BME280;33524;55.434;38.520;2023-05-23T13:49:41;100414.06;;;23.91;52.46
47761;BME280;33524;55.434;38.520;2023-05-23T13:52:10;100424.56;;;24.21;52.81
47761;BME280;33524;55.434;38.520;2023-05-23T13:54:39;100421.72;;;24.36;52.25
47761;BME280;33524;55.434;38.520;2023-05-23T13:57:08;100414.78;;;24.07;53.36
47761;BME280;33524;55.434;38.520;2023-05-23T13:59:36;100415.72;;;23.92;53.56
47761;BME280;33524;55.434;38.520;2023-05-23T14:02:05;100414.78;;;24.13;52.72
47761;BME280;33524;55.434;38.520;2023-05-23T14:04:35;100423.25;;;23.47;54.40
47761;BME280;33524;55.434;38.520;2023-05-23T14:07:17;100427.94;;;22.95;55.76
47761;BME280;33524;55.434;38.520;2023-05-23T14:09:45;100425.22;;;23.32;54.34
47761;BME280;33524;55.434;38.520;2023-05-23T14:12:13;100411.69;;;22.61;56.72
47761;BME280;33524;55.434;38.520;2023-05-23T14:14:41;100425.19;;;22.31;58.36
47761;BME280;33524;55.434;38.520;2023-05-23T14:17:14;100405.06;;;22.56;57.67
47761;BME280;33524;55.434;38.520;2023-05-23T14:19:44;100405.09;;;22.42;58.00
47761;BME280;33524;55.434;38.520;2023-05-23T14:22:13;100395.97;;;22.21;58.62
47761;BME280;33524;55.434;38.520;2023-05-23T14:24:41;100394.59;;;22.25;58.75
47761;BME280;33524;55.434;38.520;2023-05-23T14:27:09;100386.19;;;22.28;58.23
47761;BME280;33524;55.434;38.520;2023-05-23T14:29:38;100398.72;;;22.43;58.89
47761;BME280;33524;55.434;38.520;2023-05-23T14:32:06;100399.84;;;22.19;60.02
47761;BME280;33524;55.434;38.520;2023-05-23T14:34:34;100408.25;;;22.01;60.60
47761;BME280;33524;55.434;38.520;2023-05-23T14:37:03;100411.94;;;21.85;61.14
47761;BME280;33524;55.434;38.520;2023-05-23T14:39:31;100406.22;;;22.03;61.66
47761;BME280;33524;55.434;38.520;2023-05-23T14:41:59;100399.31;;;21.93;61.38
47761;BME280;33524;55.434;38.520;2023-05-23T14:44:29;100389.63;;;21.63;62.06
47761;BME280;33524;55.434;38.520;2023-05-23T14:46:57;100404.50;;;22.10;60.85
47761;BME280;33524;55.434;38.520;2023-05-23T14:49:25;100390.78;;;22.34;59.79
47761;BME280;33524;55.434;38.520;2023-05-23T14:51:53;100399.22;;;21.72;61.34
47761;BME280;33524;55.434;38.520;2023-05-23T14:54:21;100400.16;;;21.41;63.29
47761;BME280;33524;55.434;38.520;2023-05-23T14:56:49;100395.41;;;21.51;63.19
47761;BME280;33524;55.434;38.520;2023-05-23T14:59:20;100390.19;;;21.58;62.93
47761;BME280;33524;55.434;38.520;2023-05-23T15:02:04;100394.25;;;21.31;63.85
47761;BME280;33524;55.434;38.520;2023-05-23T15:04:35;100384.62;;;20.84;65.62
47761;BME280;33524;55.434;38.520;2023-05-23T15:07:04;100371.72;;;20.64;66.76
47761;BME280;33524;55.434;38.520;2023-05-23T15:09:32;100374.28;;;20.81;66.32
47761;BME280;33524;55.434;38.520;2023-05-23T15:12:01;100367.94;;;20.82;66.61
47761;BME280;33524;55.434;38.520;2023-05-23T15:14:29;100371.00;;;20.70;67.24
47761;BME280;33524;55.434;38.520;2023-05-23T15:16:58;100365.75;;;20.54;68.10
47761;BME280;33524;55.434;38.520;2023-05-23T15:19:41;100358.28;;;20.95;66.02
47761;BME280;33524;55.434;38.520;2023-05-23T15:22:11;100357.00;;;21.29;65.54
47761;BME280;33524;55.434;38.520;2023-05-23T15:25:15;100349.47;;;20.72;67.52
47761;BME280;33524;55.434;38.520;2023-05-23T15:27:48;100347.41;;;20.51;68.38
47761;BME280;33524;55.434;38.520;2023-05-23T15:30:17;100342.81;;;20.68;67.55
47761;BME280;33524;55.434;38.520;2023-05-23T15:32:45;100348.56;;;20.80;67.15
47761;BME280;33524;55.434;38.520;2023-05-23T15:35:14;100340.62;;;20.71;67.26
47761;BME280;33524;55.434;38.520;2023-05-23T15:37:46;100331.38;;;20.51;68.12
47761;BME280;33524;55.434;38.520;2023-05-23T15:40:14;100326.75;;;20.45;68.17
47761;BME280;33524;55.434;38.520;2023-05-23T15:42:42;100331.72;;;20.48;68.08
47761;BME280;33524;55.434;38.520;2023-05-23T15:45:11;100315.81;;;20.00;69.79
47761;BME280;33524;55.434;38.520;2023-05-23T15:47:39;100338.44;;;20.12;69.92
47761;BME280;33524;55.434;38.520;2023-05-23T15:50:07;100329.59;;;20.12;69.90
47761;BME280;33524;55.434;38.520;2023-05-23T15:52:38;100343.25;;;20.17;69.31
47761;BME280;33524;55.434;38.520;2023-05-23T15:55:06;100347.25;;;20.44;66.82
47761;BME280;33524;55.434;38.520;2023-05-23T15:57:34;100347.28;;;20.13;69.19
47761;BME280;33524;55.434;38.520;2023-05-23T16:00:03;100346.03;;;20.63;65.73
47761;BME280;33524;55.434;38.520;2023-05-23T16:02:38;100349.16;;;20.35;67.01
47761;BME280;33524;55.434;38.520;2023-05-23T16:05:19;100349.41;;;19.78;70.13
47761;BME280;33524;55.434;38.520;2023-05-23T16:07:47;100362.75;;;19.78;69.83
47761;BME280;33524;55.434;38.520;2023-05-23T16:10:15;100360.16;;;21.10;62.57
47761;BME280;33524;55.434;38.520;2023-05-23T16:12:55;100366.25;;;21.19;62.85
47761;BME280;33524;55.434;38.520;2023-05-23T16:15:23;100357.06;;;20.52;66.19
47761;BME280;33524;55.434;38.520;2023-05-23T16:17:51;100378.81;;;20.49;64.29
47761;BME280;33524;55.434;38.520;2023-05-23T16:20:20;100373.66;;;21.54;60.85
47761;BME280;33524;55.434;38.520;2023-05-23T16:22:48;100364.84;;;20.07;67.31
47761;BME280;33524;55.434;38.520;2023-05-23T16:25:16;100365.72;;;20.00;67.34
47761;BME280;33524;55.434;38.520;2023-05-23T16:27:46;100361.09;;;19.69;69.81
47761;BME280;33524;55.434;38.520;2023-05-23T16:30:14;100351.06;;;19.15;72.81
47761;BME280;33524;55.434;38.520;2023-05-23T16:32:42;100340.56;;;18.97;74.57
47761;BME280;33524;55.434;38.520;2023-05-23T16:35:11;100338.37;;;18.76;75.96
47761;BME280;33524;55.434;38.520;2023-05-23T16:37:39;100334.72;;;18.77;77.17
47761;BME280;33524;55.434;38.520;2023-05-23T16:40:09;100331.84;;;18.54;79.41
47761;BME280;33524;55.434;38.520;2023-05-23T16:42:38;100326.19;;;18.41;81.20
47761;BME280;33524;55.434;38.520;2023-05-23T16:45:06;100332.47;;;18.23;83.06
47761;BME280;33524;55.434;38.520;2023-05-23T16:47:34;100324.50;;;18.31;83.49
47761;BME280;33524;55.434;38.520;2023-05-23T16:50:03;100334.78;;;18.18;84.44
47761;BME280;33524;55.434;38.520;2023-05-23T16:52:31;100332.91;;;18.10;84.73
47761;BME280;33524;55.434;38.520;2023-05-23T16:55:00;100327.94;;;18.15;84.93
47761;BME280;33524;55.434;38.520;2023-05-23T16:57:32;100329.28;;;18.20;83.97
47761;BME280;33524;55.434;38.520;2023-05-23T17:00:00;100328.44;;;18.11;84.70
47761;BME280;33524;55.434;38.520;2023-05-23T17:02:33;100327.41;;;18.04;85.39
47761;BME280;33524;55.434;38.520;2023-05-23T17:05:01;100322.09;;;18.04;85.26
47761;BME280;33524;55.434;38.520;2023-05-23T17:07:30;100317.75;;;17.94;85.65
47761;BME280;33524;55.434;38.520;2023-05-23T17:09:59;100321.06;;;17.88;86.08
47761;BME280;33524;55.434;38.520;2023-05-23T17:12:29;100323.19;;;17.85;85.25
47761;BME280;33524;55.434;38.520;2023-05-23T17:14:58;100313.69;;;17.82;86.11
47761;BME280;33524;55.434;38.520;2023-05-23T17:17:27;100306.16;;;17.78;86.32
47761;BME280;33524;55.434;38.520;2023-05-23T17:19:55;100305.31;;;17.77;86.53
47761;BME280;33524;55.434;38.520;2023-05-23T17:22:24;100295.28;;;17.63;86.98
47761;BME280;33524;55.434;38.520;2023-05-23T17:24:52;100297.13;;;17.62;87.63
47761;BME280;33524;55.434;38.520;2023-05-23T17:27:20;100301.72;;;17.52;88.17
47761;BME280;33524;55.434;38.520;2023-05-23T17:29:48;100300.72;;;17.45;88.44
47761;BME280;33524;55.434;38.520;2023-05-23T17:32:17;100306.91;;;17.53;87.34
47761;BME280;33524;55.434;38.520;2023-05-23T17:34:46;100311.78;;;17.40;88.57
47761;BME280;33524;55.434;38.520;2023-05-23T17:37:15;100305.69;;;17.48;87.91
47761;BME280;33524;55.434;38.520;2023-05-23T17:39:43;100282.13;;;17.19;88.25
47761;BME280;33524;55.434;38.520;2023-05-23T17:42:12;100317.38;;;17.29;89.13
47761;BME280;33524;55.434;38.520;2023-05-23T17:44:40;100308.69;;;17.19;89.29
47761;BME280;33524;55.434;38.520;2023-05-23T17:47:09;100317.84;;;16.98;90.65
47761;BME280;33524;55.434;38.520;2023-05-23T17:49:37;100310.47;;;17.10;88.76
47761;BME280;33524;55.434;38.520;2023-05-23T17:52:06;100313.94;;;17.10;86.82
47761;BME280;33524;55.434;38.520;2023-05-23T17:54:46;100312.50;;;17.16;87.06
47761;BME280;33524;55.434;38.520;2023-05-23T17:57:15;100311.50;;;17.43;83.80
47761;BME280;33524;55.434;38.520;2023-05-23T17:59:43;100318.84;;;17.23;85.63
47761;BME280;33524;55.434;38.520;2023-05-23T18:02:12;100314.22;;;16.99;87.49
47761;BME280;33524;55.434;38.520;2023-05-23T18:04:45;100311.16;;;16.94;88.29
47761;BME280;33524;55.434;38.520;2023-05-23T18:07:14;100313.94;;;17.10;82.72
47761;BME280;33524;55.434;38.520;2023-05-23T18:09:46;100302.59;;;17.26;79.91
47761;BME280;33524;55.434;38.520;2023-05-23T18:12:15;100315.16;;;17.77;72.89
47761;BME280;33524;55.434;38.520;2023-05-23T18:14:43;100324.78;;;17.43;75.72
47761;BME280;33524;55.434;38.520;2023-05-23T18:17:12;100307.59;;;17.29;77.25
47761;BME280;33524;55.434;38.520;2023-05-23T18:19:40;100319.22;;;16.66;86.57
47761;BME280;33524;55.434;38.520;2023-05-23T18:22:21;100317.41;;;16.85;82.96
47761;BME280;33524;55.434;38.520;2023-05-23T18:24:49;100317.16;;;16.96;76.38
47761;BME280;33524;55.434;38.520;2023-05-23T18:27:31;100309.09;;;16.70;80.75
47761;BME280;33524;55.434;38.520;2023-05-23T18:30:14;100311.50;;;16.37;87.06
47761;BME280;33524;55.434;38.520;2023-05-23T18:32:42;100308.84;;;17.43;72.88
47761;BME280;33524;55.434;38.520;2023-05-23T18:35:11;100312.47;;;16.90;81.42
47761;BME280;33524;55.434;38.520;2023-05-23T18:37:39;100321.34;;;17.25;74.54
47761;BME280;33524;55.434;38.520;2023-05-23T18:40:07;100322.78;;;18.14;65.25
47761;BME280;33524;55.434;38.520;2023-05-23T18:42:36;100324.19;;;18.43;63.41
47761;BME280;33524;55.434;38.520;2023-05-23T18:45:04;100321.97;;;17.79;67.81
47761;BME280;33524;55.434;38.520;2023-05-23T18:47:45;100321.13;;;16.56;82.02
47761;BME280;33524;55.434;38.520;2023-05-23T18:50:14;100310.84;;;15.70;94.55
47761;BME280;33524;55.434;38.520;2023-05-23T18:52:42;100308.00;;;15.91;93.00
47761;BME280;33524;55.434;38.520;2023-05-23T18:55:10;100307.09;;;15.72;96.17
47761;BME280;33524;55.434;38.520;2023-05-23T18:57:51;100282.00;;;15.67;92.87
47761;BME280;33524;55.434;38.520;2023-05-23T19:00:20;100310.28;;;16.04;84.96
47761;BME280;33524;55.434;38.520;2023-05-23T19:02:49;100307.44;;;15.87;92.13
47761;BME280;33524;55.434;38.520;2023-05-23T19:05:29;100313.88;;;16.12;83.91
47761;BME280;33524;55.434;38.520;2023-05-23T19:07:58;100320.62;;;17.14;70.03
47761;BME280;33524;55.434;38.520;2023-05-23T19:10:26;100325.22;;;17.65;67.68
47761;BME280;33524;55.434;38.520;2023-05-23T19:12:54;100327.50;;;16.99;74.20
47761;BME280;33524;55.434;38.520;2023-05-23T19:15:22;100325.00;;;16.16;86.34
47761;BME280;33524;55.434;38.520;2023-05-23T19:17:51;100324.22;;;16.06;83.57
47761;BME280;33524;55.434;38.520;2023-05-23T19:20:19;100327.16;;;16.30;80.01
47761;BME280;33524;55.434;38.520;2023-05-23T19:22:47;100318.94;;;15.78;85.36
47761;BME280;33524;55.434;38.520;2023-05-23T19:25:19;100328.37;;;15.53;87.57
47761;BME280;33524;55.434;38.520;2023-05-23T19:28:00;100324.66;;;15.36;91.31
47761;BME280;33524;55.434;38.520;2023-05-23T19:30:28;100328.41;;;15.43;91.65
47761;BME280;33524;55.434;38.520;2023-05-23T19:33:09;100327.38;;;15.91;79.26
47761;BME280;33524;55.434;38.520;2023-05-23T19:35:49;100325.69;;;16.00;76.22
47761;BME280;33524;55.434;38.520;2023-05-23T19:38:18;100322.44;;;16.24;78.05
47761;BME280;33524;55.434;38.520;2023-05-23T19:40:46;100327.19;;;16.03;83.38
47761;BME280;33524;55.434;38.520;2023-05-23T19:43:14;100333.62;;;16.00;81.27
47761;BME280;33524;55.434;38.520;2023-05-23T19:45:55;100330.31;;;16.16;74.76
47761;BME280;33524;55.434;38.520;2023-05-23T19:48:24;100333.50;;;16.20;73.30
47761;BME280;33524;55.434;38.520;2023-05-23T19:50:52;100327.75;;;16.24;76.01
47761;BME280;33524;55.434;38.520;2023-05-23T19:53:32;100327.16;;;16.30;75.21
47761;BME280;33524;55.434;38.520;2023-05-23T19:56:01;100332.66;;;16.65;73.44
47761;BME280;33524;55.434;38.520;2023-05-23T19:58:30;100332.94;;;16.80;73.97
47761;BME280;33524;55.434;38.520;2023-05-23T20:01:23;100334.00;;;16.69;75.23
47761;BME280;33524;55.434;38.520;2023-05-23T20:03:52;100331.69;;;16.84;67.71
47761;BME280;33524;55.434;38.520;2023-05-23T20:06:20;100338.81;;;16.83;68.67
47761;BME280;33524;55.434;38.520;2023-05-23T20:09:04;100331.28;;;16.79;71.23
47761;BME280;33524;55.434;38.520;2023-05-23T20:11:34;100332.28;;;16.96;67.17
47761;BME280;33524;55.434;38.520;2023-05-23T20:14:02;100325.66;;;17.00;69.57
47761;BME280;33524;55.434;38.520;2023-05-23T20:16:30;100323.22;;;17.06;71.64
47761;BME280;33524;55.434;38.520;2023-05-23T20:18:59;100325.22;;;16.86;71.31
47761;BME280;33524;55.434;38.520;2023-05-23T20:21:27;100328.63;;;16.79;70.70
47761;BME280;33524;55.434;38.520;2023-05-23T20:23:55;100321.59;;;16.87;69.45
47761;BME280;33524;55.434;38.520;2023-05-23T20:26:23;100332.69;;;16.83;69.75
47761;BME280;33524;55.434;38.520;2023-05-23T20:28:51;100324.59;;;16.74;67.59
47761;BME280;33524;55.434;38.520;2023-05-23T20:31:20;100329.16;;;16.64;70.53
47761;BME280;33524;55.434;38.520;2023-05-23T20:33:48;100330.28;;;16.62;71.80
47761;BME280;33524;55.434;38.520;2023-05-23T20:36:16;100331.97;;;16.63;69.97
47761;BME280;33524;55.434;38.520;2023-05-23T20:38:47;100327.63;;;16.80;68.02
47761;BME280;33524;55.434;38.520;2023-05-23T20:41:15;100320.59;;;16.70;68.01
47761;BME280;33524;55.434;38.520;2023-05-23T20:43:44;100310.78;;;16.71;66.45
47761;BME280;33524;55.434;38.520;2023-05-23T20:46:13;100331.19;;;16.52;70.95
47761;BME280;33524;55.434;38.520;2023-05-23T20:48:41;100322.09;;;16.55;69.58
47761;BME280;33524;55.434;38.520;2023-05-23T20:51:10;100325.50;;;16.65;67.67
47761;BME280;33524;55.434;38.520;2023-05-23T20:53:39;100329.16;;;16.64;65.88
47761;BME280;33524;55.434;38.520;2023-05-23T20:56:07;100330.12;;;16.63;67.16
47761;BME280;33524;55.434;38.520;2023-05-23T20:58:38;100333.62;;;16.64;65.70
47761;BME280;33524;55.434;38.520;2023-05-23T21:01:06;100325.81;;;16.62;67.80
47761;BME280;33524;55.434;38.520;2023-05-23T21:03:34;100325.06;;;16.52;68.65
47761;BME280;33524;55.434;38.520;2023-05-23T21:06:03;100320.97;;;16.40;68.64
47761;BME280;33524;55.434;38.520;2023-05-23T21:08:44;100324.13;;;16.25;68.48
47761;BME280;33524;55.434;38.520;2023-05-23T21:11:13;100324.38;;;16.32;67.68
47761;BME280;33524;55.434;38.520;2023-05-23T21:13:42;100325.97;;;15.97;73.54
47761;BME280;33524;55.434;38.520;2023-05-23T21:16:11;100331.00;;;16.00;69.84
47761;BME280;33524;55.434;38.520;2023-05-23T21:18:41;100329.84;;;16.03;70.68
47761;BME280;33524;55.434;38.520;2023-05-23T21:21:09;100330.53;;;15.77;73.63
47761;BME280;33524;55.434;38.520;2023-05-23T21:23:37;100334.81;;;15.88;71.88
47761;BME280;33524;55.434;38.520;2023-05-23T21:26:08;100337.31;;;15.89;68.84
47761;BME280;33524;55.434;38.520;2023-05-23T21:28:36;100335.81;;;15.77;71.30
47761;BME280;33524;55.434;38.520;2023-05-23T21:31:05;100331.63;;;15.84;72.02
47761;BME280;33524;55.434;38.520;2023-05-23T21:33:33;100323.81;;;15.83;72.08
47761;BME280;33524;55.434;38.520;2023-05-23T21:36:01;100325.53;;;15.74;72.27
47761;BME280;33524;55.434;38.520;2023-05-23T21:38:30;100329.31;;;15.62;74.18
47761;BME280;33524;55.434;38.520;2023-05-23T21:40:58;100325.91;;;15.79;70.10
47761;BME280;33524;55.434;38.520;2023-05-23T21:43:26;100331.25;;;15.69;72.62
47761;BME280;33524;55.434;38.520;2023-05-23T21:45:54;100323.25;;;15.79;70.05
47761;BME280;33524;55.434;38.520;2023-05-23T21:48:23;100323.16;;;15.71;70.51
47761;BME280;33524;55.434;38.520;2023-05-23T21:50:51;100328.03;;;15.76;71.86
47761;BME280;33524;55.434;38.520;2023-05-23T21:53:19;100315.37;;;15.60;72.55
47761;BME280;33524;55.434;38.520;2023-05-23T21:55:47;100315.25;;;15.51;73.81
47761;BME280;33524;55.434;38.520;2023-05-23T21:58:15;100321.94;;;15.56;73.01
47761;BME280;33524;55.434;38.520;2023-05-23T22:00:44;100323.41;;;15.40;74.34
47761;BME280;33524;55.434;38.520;2023-05-23T22:03:13;100316.19;;;15.60;71.68
47761;BME280;33524;55.434;38.520;2023-05-23T22:05:41;100322.06;;;15.54;70.04
47761;BME280;33524;55.434;38.520;2023-05-23T22:08:09;100319.81;;;15.69;67.81
47761;BME280;33524;55.434;38.520;2023-05-23T22:10:38;100318.91;;;15.50;72.64
47761;BME280;33524;55.434;38.520;2023-05-23T22:13:07;100308.00;;;15.53;71.14
47761;BME280;33524;55.434;38.520;2023-05-23T22:15:36;100308.09;;;15.62;69.16
47761;BME280;33524;55.434;38.520;2023-05-23T22:18:04;100306.34;;;15.52;70.56
47761;BME280;33524;55.434;38.520;2023-05-23T22:20:33;100312.16;;;15.56;68.39
47761;BME280;33524;55.434;38.520;2023-05-23T22:23:05;100314.69;;;15.58;68.65
47761;BME280;33524;55.434;38.520;2023-05-23T22:25:34;100306.03;;;15.56;70.50
47761;BME280;33524;55.434;38.520;2023-05-23T22:28:04;100314.19;;;15.44;72.52
47761;BME280;33524;55.434;38.520;2023-05-23T22:30:33;100294.53;;;15.37;69.03
47761;BME280;33524;55.434;38.520;2023-05-23T22:33:02;100312.03;;;15.58;68.88
47761;BME280;33524;55.434;38.520;2023-05-23T22:35:30;100312.13;;;15.66;68.53
47761;BME280;33524;55.434;38.520;2023-05-23T22:37:59;100308.78;;;15.64;66.57
47761;BME280;33524;55.434;38.520;2023-05-23T22:40:27;100310.50;;;15.55;69.62
47761;BME280;33524;55.434;38.520;2023-05-23T22:42:55;100310.75;;;15.62;67.77
47761;BME280;33524;55.434;38.520;2023-05-23T22:45:23;100311.31;;;15.75;66.24
47761;BME280;33524;55.434;38.520;2023-05-23T22:47:51;100314.41;;;15.61;67.67
47761;BME280;33524;55.434;38.520;2023-05-23T22:50:20;100312.13;;;15.66;68.28
47761;BME280;33524;55.434;38.520;2023-05-23T22:52:49;100313.94;;;15.65;68.95
47761;BME280;33524;55.434;38.520;2023-05-23T22:55:17;100313.50;;;15.80;65.40
47761;BME280;33524;55.434;38.520;2023-05-23T22:57:47;100315.47;;;15.78;67.29
47761;BME280;33524;55.434;38.520;2023-05-23T23:00:15;100307.28;;;15.61;68.22
47761;BME280;33524;55.434;38.520;2023-05-23T23:02:43;100303.50;;;15.64;67.14
47761;BME280;33524;55.434;38.520;2023-05-23T23:05:13;100301.87;;;15.43;69.44
47761;BME280;33524;55.434;38.520;2023-05-23T23:07:41;100297.97;;;15.47;72.25
47761;BME280;33524;55.434;38.520;2023-05-23T23:10:09;100305.31;;;15.26;70.97
47761;BME280;33524;55.434;38.520;2023-05-23T23:12:38;100297.75;;;15.21;74.40
47761;BME280;33524;55.434;38.520;2023-05-23T23:15:06;100295.28;;;15.20;74.53
47761;BME280;33524;55.434;38.520;2023-05-23T23:17:35;100294.16;;;15.12;74.87
47761;BME280;33524;55.434;38.520;2023-05-23T23:20:05;100288.72;;;15.14;73.49
47761;BME280;33524;55.434;38.520;2023-05-23T23:22:35;100294.03;;;15.14;71.91
47761;BME280;33524;55.434;38.520;2023-05-23T23:25:04;100277.06;;;14.97;77.31
47761;BME280;33524;55.434;38.520;2023-05-23T23:27:38;100284.72;;;15.00;77.34
47761;BME280;33524;55.434;38.520;2023-05-23T23:30:07;100281.81;;;14.93;77.69
47761;BME280;33524;55.434;38.520;2023-05-23T23:32:36;100289.88;;;15.02;73.22
47761;BME280;33524;55.434;38.520;2023-05-23T23:35:05;100285.00;;;14.97;75.16
47761;BME280;33524;55.434;38.520;2023-05-23T23:37:34;100276.38;;;14.95;75.66
47761;BME280;33524;55.434;38.520;2023-05-23T23:40:02;100283.19;;;14.88;75.39
47761;BME280;33524;55.434;38.520;2023-05-23T23:42:32;100288.91;;;15.03;73.96
47761;BME280;33524;55.434;38.520;2023-05-23T23:45:00;100285.59;;;14.91;77.15
47761;BME280;33524;55.434;38.520;2023-05-23T23:47:32;100285.03;;;14.87;74.77
47761;BME280;33524;55.434;38.520;2023-05-23T23:50:01;100282.38;;;14.87;77.03
47761;BME280;33524;55.434;38.520;2023-05-23T23:52:30;100281.69;;;14.85;78.33
47761;BME280;33524;55.434;38.520;2023-05-23T23:54:59;100275.00;;;14.81;78.07
47761;BME280;33524;55.434;38.520;2023-05-23T23:57:30;100288.50;;;14.88;74.24
47761;BME280;33524;55.434;38.520;2023-05-23T23:59:59;100274.97;;;15.01;70.67
